Time;durP1;ratioP1;P1;durP2;ratioP2;P2;SDS_P1;SDS_P2;PMS_P1;PMS_P2;Temp;Humidity;BMP_temperature;BMP_pressure;BME280_temperature;BME280_humidity;BME280_pressure;Samples;Min_cycle;Max_cycle;Signal;HPM_P1;HPM_P2
2022/12/22 03:26:09;;;;;;;18.05;3.47;;;4.00;99.90;;;;;;5026983;28;20144;-81
2022/12/22 03:28:36;;;;;;;13.85;3.28;;;4.00;99.90;;;;;;5030857;28;20053;-81
2022/12/22 03:31:06;;;;;;;13.98;3.67;;;4.10;99.90;;;;;;5021424;28;20060;-80
2022/12/22 03:33:34;;;;;;;14.38;4.30;;;4.10;99.90;;;;;;5030811;28;20084;-81
2022/12/22 03:36:02;;;;;;;11.43;3.78;;;4.10;99.90;;;;;;5030147;28;20064;-81
2022/12/22 03:38:29;;;;;;;10.75;3.45;;;4.10;99.90;;;;;;5029127;28;20042;-82
2022/12/22 03:40:57;;;;;;;8.73;3.55;;;4.10;99.90;;;;;;5017929;28;20056;-82
2022/12/22 03:46:32;;;;;;;14.00;3.67;;;4.20;99.90;;;;;;5031255;28;20081;-83
2022/12/22 03:49:09;;;;;;;14.80;3.78;;;4.20;99.90;;;;;;5022426;28;20569;-81
2022/12/22 03:51:41;;;;;;;11.73;4.32;;;4.20;99.90;;;;;;5019605;28;20080;-79
2022/12/22 03:54:10;;;;;;;8.43;3.38;;;4.20;99.90;;;;;;5043134;28;20468;-77
2022/12/22 03:56:38;;;;;;;11.55;3.63;;;4.30;99.90;;;;;;5027688;28;20517;-80
2022/12/22 03:59:06;;;;;;;15.38;5.03;;;4.30;99.90;;;;;;5016647;28;20041;-78
2022/12/22 04:01:38;;;;;;;14.07;4.40;;;4.20;99.90;;;;;;5025596;28;20502;-80
2022/12/22 04:04:07;;;;;;;23.47;4.97;;;4.20;99.90;;;;;;5025904;28;20064;-79
2022/12/22 04:06:34;;;;;;;13.32;4.65;;;4.20;99.90;;;;;;5024951;28;20414;-78
2022/12/22 04:09:02;;;;;;;24.42;5.10;;;4.20;99.90;;;;;;5021394;28;20052;-78
2022/12/22 04:14:26;;;;;;;23.45;6.15;;;4.20;99.90;;;;;;4990796;28;22269;-78
2022/12/22 04:16:57;;;;;;;16.85;5.55;;;4.20;99.90;;;;;;5012051;28;20140;-74
2022/12/22 04:19:26;;;;;;;14.95;6.22;;;4.20;99.90;;;;;;5017552;28;20052;-70
2022/12/22 04:21:55;;;;;;;13.55;4.40;;;4.20;99.90;;;;;;5023888;28;20088;-73
2022/12/22 04:24:22;;;;;;;15.98;5.65;;;4.20;99.90;;;;;;5015293;28;20049;-73
2022/12/22 04:26:50;;;;;;;12.88;4.75;;;4.20;99.90;;;;;;5016516;28;20528;-74
2022/12/22 04:29:20;;;;;;;20.30;5.60;;;4.20;99.90;;;;;;5030386;28;20122;-74
2022/12/22 04:31:48;;;;;;;14.82;5.60;;;4.20;99.90;;;;;;5032085;28;20468;-74
2022/12/22 04:34:15;;;;;;;13.80;5.88;;;4.20;99.90;;;;;;5032102;28;20077;-72
2022/12/22 04:36:44;;;;;;;30.83;5.72;;;4.20;99.90;;;;;;5020285;28;20077;-78
2022/12/22 04:39:15;;;;;;;27.20;6.88;;;4.20;99.90;;;;;;5025231;28;20879;-73
2022/12/22 04:41:46;;;;;;;22.77;7.32;;;4.30;99.90;;;;;;5041926;28;20057;-73
2022/12/22 04:44:14;;;;;;;25.60;6.70;;;4.20;99.90;;;;;;5022592;28;20060;-74
2022/12/22 04:46:41;;;;;;;18.27;7.25;;;4.30;99.90;;;;;;5026448;28;20055;-79
2022/12/22 04:49:09;;;;;;;20.45;6.85;;;4.30;99.90;;;;;;5029007;28;20050;-73
2022/12/22 04:51:37;;;;;;;18.63;6.68;;;4.30;99.90;;;;;;5031907;28;20037;-73
2022/12/22 04:54:07;;;;;;;20.65;5.68;;;4.30;99.90;;;;;;5027201;28;20409;-73
2022/12/22 04:56:34;;;;;;;21.40;7.07;;;4.30;99.90;;;;;;5027977;28;20096;-73
2022/12/22 04:59:02;;;;;;;18.25;6.35;;;4.30;99.90;;;;;;5028096;28;20137;-73
2022/12/22 05:01:30;;;;;;;17.80;7.25;;;4.30;99.90;;;;;;5028239;28;20065;-73
2022/12/22 05:03:58;;;;;;;15.77;6.05;;;4.20;99.90;;;;;;5006815;28;20553;-72
2022/12/22 05:06:26;;;;;;;15.80;4.82;;;4.20;99.90;;;;;;5027099;28;20119;-75
2022/12/22 05:08:55;;;;;;;17.70;6.25;;;4.20;99.90;;;;;;5025616;28;20037;-70
2022/12/22 05:11:24;;;;;;;17.52;5.70;;;4.20;99.90;;;;;;5034586;28;20053;-75
2022/12/22 05:13:51;;;;;;;19.30;4.68;;;4.20;99.90;;;;;;5024003;28;20470;-73
2022/12/22 05:16:19;;;;;;;13.82;5.45;;;4.20;99.90;;;;;;5035575;28;20504;-72
2022/12/22 05:18:47;;;;;;;13.15;5.88;;;4.20;99.90;;;;;;5024161;28;20076;-73
2022/12/22 05:21:17;;;;;;;14.27;5.03;;;4.20;99.90;;;;;;5013697;28;20417;-72
2022/12/22 05:23:46;;;;;;;16.17;5.13;;;4.20;99.90;;;;;;5026432;28;20087;-71
2022/12/22 05:26:14;;;;;;;15.95;5.18;;;4.20;99.90;;;;;;5029996;28;20045;-71
2022/12/22 05:28:45;;;;;;;20.00;5.30;;;4.20;99.90;;;;;;5016126;28;20054;-73
2022/12/22 05:31:18;;;;;;;15.23;5.00;;;4.20;99.90;;;;;;5017309;28;20132;-72
2022/12/22 05:33:45;;;;;;;;;;;4.20;99.90;;;;;;5012092;28;20053;-71
2022/12/22 05:36:13;;;;;;;13.63;5.10;;;4.20;99.90;;;;;;5008788;28;20016;-73
2022/12/22 05:38:40;;;;;;;14.50;5.25;;;4.20;99.90;;;;;;5012385;28;20156;-73
2022/12/22 05:41:08;;;;;;;14.93;6.15;;;4.20;99.90;;;;;;5013085;28;20049;-72
2022/12/22 05:43:36;;;;;;;17.63;4.95;;;4.20;99.90;;;;;;5016220;28;20426;-71
2022/12/22 05:46:07;;;;;;;17.27;4.80;;;4.20;99.90;;;;;;5027444;28;20524;-75
2022/12/22 05:48:36;;;;;;;18.25;5.63;;;4.20;99.90;;;;;;5025222;28;20046;-75
2022/12/22 05:51:04;;;;;;;19.80;5.97;;;4.20;99.90;;;;;;5029877;28;20050;-75
2022/12/22 05:53:32;;;;;;;14.73;5.45;;;4.20;99.90;;;;;;5022320;28;20065;-77
2022/12/22 05:55:59;;;;;;;15.18;5.53;;;4.20;99.90;;;;;;5034435;28;20042;-74
2022/12/22 05:58:27;;;;;;;14.63;6.18;;;4.20;99.90;;;;;;5029375;28;20508;-75
2022/12/22 06:00:58;;;;;;;18.33;6.95;;;4.20;99.90;;;;;;5031220;28;20053;-74
2022/12/22 06:03:28;;;;;;;22.13;7.03;;;4.20;99.90;;;;;;5027437;28;20229;-75
2022/12/22 06:05:57;;;;;;;22.02;6.90;;;4.30;99.90;;;;;;5032143;28;20145;-74
2022/12/22 06:08:25;;;;;;;16.52;5.82;;;4.40;99.90;;;;;;5026221;28;20050;-75
2022/12/22 06:10:54;;;;;;;20.55;6.28;;;4.40;99.90;;;;;;5031266;28;20136;-74
2022/12/22 06:13:22;;;;;;;20.77;6.80;;;4.40;99.90;;;;;;5038294;28;20549;-76
2022/12/22 06:15:50;;;;;;;19.05;6.05;;;4.40;99.90;;;;;;5031784;28;20050;-73
2022/12/22 06:18:17;;;;;;;17.10;6.22;;;4.40;99.90;;;;;;5028676;28;20056;-74
2022/12/22 06:20:47;;;;;;;19.00;6.38;;;4.40;99.90;;;;;;5024761;28;20136;-72
2022/12/22 06:23:15;;;;;;;25.25;7.70;;;4.40;99.90;;;;;;5045269;28;20060;-74
2022/12/22 06:25:43;;;;;;;19.27;7.72;;;4.40;99.90;;;;;;5030482;28;20469;-75
2022/12/22 06:28:10;;;;;;;24.50;7.40;;;4.40;99.90;;;;;;5025614;28;20062;-75
2022/12/22 06:30:38;;;;;;;27.50;7.43;;;4.40;99.90;;;;;;5046051;28;20056;-76
2022/12/22 06:33:05;;;;;;;21.95;7.28;;;4.40;99.90;;;;;;5030515;28;20045;-75
2022/12/22 06:35:33;;;;;;;24.08;8.65;;;4.50;99.90;;;;;;5044678;28;20053;-76
2022/12/22 06:38:02;;;;;;;23.23;7.93;;;4.50;99.90;;;;;;5028882;28;20140;-76
2022/12/22 06:40:30;;;;;;;29.30;6.65;;;4.50;99.90;;;;;;5042553;28;20087;-76
2022/12/22 06:43:08;;;;;;;23.83;7.00;;;4.50;99.90;;;;;;5030422;28;20506;-75
2022/12/22 06:45:36;;;;;;;16.85;6.30;;;4.50;99.90;;;;;;5026450;28;20049;-75
2022/12/22 06:48:05;;;;;;;19.90;6.60;;;4.50;99.90;;;;;;5029446;28;20132;-76
2022/12/22 06:50:32;;;;;;;19.23;6.68;;;4.50;99.90;;;;;;5028242;28;20045;-76
2022/12/22 06:53:02;;;;;;;20.67;6.72;;;4.40;99.90;;;;;;5023932;28;20313;-76
2022/12/22 06:55:30;;;;;;;20.52;6.88;;;4.40;99.90;;;;;;5014985;28;20050;-73
2022/12/22 06:57:57;;;;;;;14.07;5.93;;;4.40;99.90;;;;;;5020330;28;20453;-73
2022/12/22 07:00:25;;;;;;;23.90;6.00;;;4.40;99.90;;;;;;5026576;28;20520;-72
2022/12/22 07:02:53;;;;;;;17.48;6.07;;;4.40;99.90;;;;;;5030095;28;20473;-72
2022/12/22 07:05:22;;;;;;;22.02;7.72;;;4.40;99.90;;;;;;5027200;28;20051;-73
2022/12/22 07:07:50;;;;;;;27.40;6.93;;;4.40;99.90;;;;;;5029692;28;20060;-73
2022/12/22 07:10:56;;;;;;;16.00;5.82;;;4.40;99.90;;;;;;5025322;28;20099;-72
2022/12/22 07:13:18;;;;;;;20.00;7.07;;;4.40;99.90;;;;;;5029443;28;20468;-73
2022/12/22 07:15:46;;;;;;;28.67;7.10;;;4.40;99.90;;;;;;5026086;28;20490;-73
2022/12/22 07:18:14;;;;;;;32.08;8.00;;;4.40;99.90;;;;;;5030278;28;20407;-74
2022/12/22 07:20:42;;;;;;;43.30;9.35;;;4.40;99.90;;;;;;5031590;28;20506;-73
2022/12/22 07:23:09;;;;;;;26.45;6.95;;;4.40;99.90;;;;;;5025290;28;20080;-72
2022/12/22 07:25:39;;;;;;;16.60;5.20;;;4.40;99.90;;;;;;5026394;28;20134;-74
2022/12/22 07:28:07;;;;;;;27.42;8.02;;;4.50;99.90;;;;;;5027428;28;20087;-72
2022/12/22 07:30:36;;;;;;;26.20;7.30;;;4.50;99.90;;;;;;5027274;28;20569;-72
2022/12/22 07:33:04;;;;;;;24.88;7.07;;;4.50;99.90;;;;;;5021576;28;20049;-72
2022/12/22 07:35:31;;;;;;;23.27;6.20;;;4.50;99.90;;;;;;5022454;28;20497;-73
2022/12/22 07:37:59;;;;;;;19.75;5.88;;;4.50;99.90;;;;;;5023329;28;20343;-73
2022/12/22 07:40:27;;;;;;;16.17;5.10;;;4.50;99.90;;;;;;5023415;28;20397;-73
2022/12/22 07:42:57;;;;;;;19.52;5.90;;;4.50;99.90;;;;;;5023080;28;20053;-73
2022/12/22 07:45:25;;;;;;;30.80;6.25;;;4.50;99.90;;;;;;5024544;28;20414;-74
2022/12/22 07:47:53;;;;;;;21.20;5.07;;;4.60;99.90;;;;;;5023983;28;20068;-74
2022/12/22 07:50:27;;;;;;;34.67;6.22;;;4.60;99.90;;;;;;5022898;28;20049;-73
2022/12/22 07:52:55;;;;;;;24.00;4.97;;;4.60;99.90;;;;;;5028496;28;20441;-73
2022/12/22 07:55:23;;;;;;;14.02;4.13;;;4.60;99.90;;;;;;5023496;28;20404;-73
2022/12/22 07:57:52;;;;;;;17.38;5.05;;;4.60;99.90;;;;;;5029198;28;20513;-74
2022/12/22 08:00:33;;;;;;;17.38;4.72;;;4.60;99.90;;;;;;5021060;28;20148;-74
2022/12/22 08:03:16;;;;;;;22.45;4.38;;;4.60;99.90;;;;;;5016990;28;20057;-74
2022/12/22 08:05:45;;;;;;;15.80;3.80;;;4.60;99.90;;;;;;5021140;28;20060;-73
2022/12/22 08:08:12;;;;;;;19.85;4.40;;;4.70;99.90;;;;;;5021130;28;20068;-73
2022/12/22 08:10:40;;;;;;;27.80;6.57;;;4.60;99.90;;;;;;5022889;28;20069;-74
2022/12/22 08:13:07;;;;;;;25.15;6.25;;;4.70;99.90;;;;;;5023400;28;20501;-73
2022/12/22 08:15:37;;;;;;;31.77;9.38;;;4.70;99.90;;;;;;5025159;28;20134;-73
2022/12/22 08:18:05;;;;;;;44.28;12.52;;;4.70;99.90;;;;;;5021534;28;20144;-72
2022/12/22 08:20:32;;;;;;;42.78;10.57;;;4.70;99.90;;;;;;5019969;28;20042;-75
2022/12/22 08:23:00;;;;;;;48.63;10.75;;;4.70;99.90;;;;;;5035266;28;20143;-75
2022/12/22 08:25:28;;;;;;;33.97;8.50;;;4.70;99.90;;;;;;5023922;28;20053;-76
2022/12/22 08:27:57;;;;;;;32.97;8.10;;;4.70;99.90;;;;;;5022858;28;20052;-74
2022/12/22 08:30:29;;;;;;;35.03;10.65;;;4.70;99.90;;;;;;5021436;28;20097;-74
2022/12/22 08:32:58;;;;;;;34.93;9.37;;;4.70;99.90;;;;;;5024587;28;20057;-74
2022/12/22 08:35:26;;;;;;;41.60;9.68;;;4.70;99.90;;;;;;5023196;28;20048;-75
2022/12/22 08:37:53;;;;;;;30.88;9.27;;;4.70;99.90;;;;;;5021511;28;20083;-75
2022/12/22 08:40:26;;;;;;;29.15;9.20;;;4.70;99.90;;;;;;5021257;28;20580;-77
2022/12/22 08:42:59;;;;;;;26.52;7.80;;;4.70;99.90;;;;;;5005064;28;20414;-75
2022/12/22 08:45:27;;;;;;;26.48;6.40;;;4.80;99.90;;;;;;5021394;28;20091;-77
2022/12/22 08:47:54;;;;;;;17.58;5.97;;;4.80;99.90;;;;;;5023871;28;20393;-77
2022/12/22 08:50:23;;;;;;;27.00;7.32;;;4.70;99.90;;;;;;5023800;28;20103;-77
2022/12/22 08:52:51;;;;;;;22.80;6.80;;;4.70;99.90;;;;;;5022751;28;20179;-76
2022/12/22 08:55:19;;;;;;;27.48;6.93;;;4.80;99.90;;;;;;5022836;28;20045;-75
2022/12/22 08:57:49;;;;;;;32.55;8.32;;;4.80;99.90;;;;;;5024488;28;20108;-75
2022/12/22 09:00:18;;;;;;;15.10;5.32;;;4.80;99.90;;;;;;5023810;28;20398;-75
2022/12/22 09:02:45;;;;;;;21.45;6.97;;;4.80;99.90;;;;;;5021664;28;20045;-75
2022/12/22 09:05:13;;;;;;;22.70;7.53;;;4.80;99.90;;;;;;5005845;28;20465;-76
2022/12/22 09:07:42;;;;;;;28.35;7.55;;;4.70;99.90;;;;;;5023022;28;20068;-74
2022/12/22 09:10:11;;;;;;;18.67;7.53;;;4.70;99.90;;;;;;5023292;28;20042;-72
2022/12/22 09:12:38;;;;;;;26.17;6.80;;;4.70;99.90;;;;;;5023265;28;20061;-72
2022/12/22 09:15:08;;;;;;;25.08;8.60;;;4.70;99.90;;;;;;5022624;28;20045;-74
2022/12/22 09:17:36;;;;;;;16.50;6.90;;;4.70;99.90;;;;;;5025300;28;20440;-75
2022/12/22 09:20:06;;;;;;;25.83;7.70;;;4.70;99.90;;;;;;5024540;28;20522;-76
2022/12/22 09:22:34;;;;;;;23.85;5.97;;;4.70;99.90;;;;;;5023629;28;20130;-76
2022/12/22 09:25:04;;;;;;;25.67;7.80;;;4.70;99.90;;;;;;5023400;28;20045;-75
2022/12/22 09:27:37;;;;;;;30.30;7.60;;;4.70;99.90;;;;;;5022012;28;20042;-74
2022/12/22 09:30:07;;;;;;;27.60;10.23;;;4.70;99.90;;;;;;5012403;28;20397;-75
2022/12/22 09:32:34;;;;;;;28.35;11.70;;;4.70;99.90;;;;;;5021575;28;20052;-75
2022/12/22 09:35:02;;;;;;;26.10;9.38;;;4.70;99.90;;;;;;5021980;28;20076;-73
2022/12/22 09:37:32;;;;;;;20.30;7.03;;;4.70;99.90;;;;;;5024172;28;20049;-73
2022/12/22 09:39:59;;;;;;;30.45;8.80;;;4.80;99.90;;;;;;5021854;28;20044;-76
2022/12/22 09:42:32;;;;;;;18.50;6.70;;;4.80;99.90;;;;;;5020093;28;20104;-75
2022/12/22 09:45:00;;;;;;;22.02;7.78;;;4.80;99.90;;;;;;5024003;28;20132;-77
2022/12/22 09:47:36;;;;;;;27.30;7.78;;;4.80;99.90;;;;;;5022090;28;20143;-76
2022/12/22 09:50:07;;;;;;;23.05;7.97;;;4.80;99.90;;;;;;5022227;28;20053;-76
2022/12/22 09:52:46;;;;;;;23.58;8.77;;;4.80;99.90;;;;;;5023048;28;20038;-76
2022/12/22 09:55:37;;;;;;;20.00;8.20;;;4.80;99.90;;;;;;5023777;28;20083;-77
2022/12/22 09:58:16;;;;;;;27.88;8.30;;;4.90;99.90;;;;;;5026469;28;20148;-76
2022/12/22 10:00:47;;;;;;;21.23;8.23;;;4.90;99.90;;;;;;5024515;28;20551;-76
2022/12/22 10:03:30;;;;;;;25.55;8.25;;;4.90;99.90;;;;;;5026557;28;20048;-77
2022/12/22 10:06:10;;;;;;;19.27;8.18;;;4.80;99.90;;;;;;5022007;28;20071;-76
2022/12/22 10:08:40;;;;;;;24.65;9.23;;;4.80;99.90;;;;;;5022304;28;20472;-77
2022/12/22 10:11:14;;;;;;;58.17;24.17;;;4.80;99.90;;;;;;5025890;28;20157;-77
2022/12/22 10:13:44;;;;;;;23.27;6.82;;;4.80;99.90;;;;;;5025841;28;20068;-77
2022/12/22 10:16:22;;;;;;;20.83;8.27;;;4.80;99.90;;;;;;5025989;28;20055;-78
2022/12/22 10:18:59;;;;;;;33.53;9.15;;;4.80;99.90;;;;;;5023607;28;20080;-77
2022/12/22 10:21:27;;;;;;;29.80;9.75;;;4.80;99.90;;;;;;5025232;28;20123;-79
2022/12/22 10:23:54;;;;;;;32.85;10.38;;;4.80;99.90;;;;;;5023324;28;20571;-77
2022/12/22 10:26:25;;;;;;;26.10;9.50;;;4.80;99.90;;;;;;5028269;28;20041;-78
2022/12/22 10:29:01;;;;;;;28.20;10.18;;;4.70;99.90;;;;;;5020600;28;20472;-79
2022/12/22 10:31:32;;;;;;;20.67;9.35;;;4.80;99.90;;;;;;5026948;28;20128;-77
2022/12/22 10:34:13;;;;;;;28.20;11.15;;;4.70;99.90;;;;;;5024260;28;20045;-75
2022/12/22 10:36:42;;;;;;;22.23;9.80;;;4.70;99.90;;;;;;5024113;28;20790;-74
2022/12/22 10:39:12;;;;;;;19.60;8.77;;;4.70;99.90;;;;;;5025996;28;20046;-75
2022/12/22 10:41:43;;;;;;;24.33;8.57;;;4.70;99.90;;;;;;5024241;28;20076;-76
2022/12/22 10:44:23;;;;;;;22.60;8.70;;;4.70;99.90;;;;;;5027287;28;20045;-75
2022/12/22 10:46:53;;;;;;;18.42;8.15;;;4.60;99.90;;;;;;5025865;28;20065;-77
2022/12/22 10:49:23;;;;;;;14.43;7.20;;;4.60;99.90;;;;;;5025351;28;20543;-76
2022/12/22 10:51:54;;;;;;;23.40;8.63;;;4.60;99.90;;;;;;5024895;28;20409;-77
2022/12/22 10:54:29;;;;;;;17.17;6.97;;;4.50;99.90;;;;;;5027119;28;20041;-75
2022/12/22 10:57:04;;;;;;;28.63;7.55;;;4.50;99.90;;;;;;5020810;28;20092;-73
2022/12/22 10:59:47;;;;;;;23.85;7.43;;;4.50;99.90;;;;;;5038830;28;20716;-74
2022/12/22 11:02:32;;;;;;;18.00;6.43;;;4.50;99.90;;;;;;5023700;28;20037;-76
2022/12/22 11:05:13;;;;;;;26.15;8.75;;;4.50;99.90;;;;;;5006599;28;20560;-77
2022/12/22 11:07:46;;;;;;;26.70;8.52;;;4.40;99.90;;;;;;5015113;28;20042;-76
2022/12/22 11:10:25;;;;;;;24.83;10.30;;;4.50;99.90;;;;;;5025099;28;20053;-74
2022/12/22 11:13:27;;;;;;;32.78;11.88;;;4.50;99.90;;;;;;5020895;28;20053;-74
2022/12/22 11:16:03;;;;;;;34.58;12.82;;;4.50;99.90;;;;;;5023729;28;20046;-76
2022/12/22 11:18:53;;;;;;;44.00;12.27;;;4.60;99.90;;;;;;5023483;28;20140;-74
2022/12/22 11:21:26;;;;;;;24.80;11.52;;;4.50;99.90;;;;;;5023386;28;20542;-75
2022/12/22 11:24:09;;;;;;;39.15;13.00;;;4.50;99.90;;;;;;5025959;28;20041;-75
2022/12/22 11:26:44;;;;;;;;;;;4.50;99.90;;;;;;5036113;28;20041;-73
2022/12/22 11:29:33;;;;;;;19.58;9.93;;;4.50;99.90;;;;;;5021548;28;19932;-75
2022/12/22 11:32:23;;;;;;;30.98;10.90;;;4.40;99.90;;;;;;5025387;28;20045;-74
2022/12/22 11:35:03;;;;;;;31.55;10.00;;;4.40;99.90;;;;;;5030594;28;20049;-73
2022/12/22 11:37:44;;;;;;;31.30;13.02;;;4.40;99.90;;;;;;5022986;28;20045;-79
2022/12/22 11:40:28;;;;;;;31.20;12.63;;;4.40;99.90;;;;;;5026553;28;20083;-80
2022/12/22 11:43:22;;;;;;;38.60;13.77;;;4.30;99.90;;;;;;5025116;28;20140;-75
2022/12/22 11:46:15;;;;;;;26.80;9.73;;;4.40;99.90;;;;;;5021023;28;20046;-78
2022/12/22 11:49:17;;;;;;;;;;;4.40;99.90;;;;;;5028171;28;20073;-76
2022/12/22 11:52:10;;;;;;;35.67;11.52;;;4.40;99.90;;;;;;5024604;28;19980;-77
2022/12/22 11:55:05;;;;;;;30.90;9.88;;;4.40;99.90;;;;;;5026982;28;20052;-78
2022/12/22 11:57:37;;;;;;;26.60;10.75;;;4.40;99.90;;;;;;5026129;28;20050;-76
2022/12/22 12:00:12;;;;;;;27.25;11.45;;;4.40;99.90;;;;;;5020891;28;20542;-75
2022/12/22 12:03:34;;;;;;;36.10;12.65;;;4.40;99.90;;;;;;5020616;28;20050;-77
2022/12/22 12:06:48;;;;;;;27.00;12.45;;;4.40;99.90;;;;;;5030580;28;20064;-76
2022/12/22 12:09:40;;;;;;;26.42;11.60;;;4.40;99.90;;;;;;5000396;28;20048;-77
2022/12/22 12:12:14;;;;;;;27.30;12.43;;;4.40;99.90;;;;;;5024763;28;20444;-74
2022/12/22 12:14:57;;;;;;;29.67;10.77;;;4.40;99.90;;;;;;5022885;28;20151;-73
2022/12/22 12:17:40;;;;;;;25.63;14.05;;;4.40;99.90;;;;;;5021485;28;20053;-80
2022/12/22 12:20:32;;;;;;;37.33;16.20;;;4.40;99.90;;;;;;5017452;28;20049;-80
2022/12/22 12:23:22;;;;;;;35.53;16.00;;;4.30;99.90;;;;;;5021364;28;20050;-76
2022/12/22 12:26:01;;;;;;;34.42;14.35;;;4.20;99.90;;;;;;5025624;28;20045;-78
2022/12/22 12:28:44;;;;;;;27.30;12.80;;;4.20;99.90;;;;;;5007601;28;20453;-80
2022/12/22 12:31:15;;;;;;;33.30;12.70;;;4.20;99.90;;;;;;5030156;28;20060;-80
2022/12/22 12:33:48;;;;;;;37.03;14.07;;;4.20;99.90;;;;;;5029679;28;20524;-77
2022/12/22 12:36:26;;;;;;;37.40;14.90;;;4.20;99.90;;;;;;5023689;28;20046;-77
2022/12/22 12:39:04;;;;;;;19.35;9.05;;;4.20;99.90;;;;;;5021082;28;21427;-77
2022/12/22 12:41:40;;;;;;;15.77;7.75;;;4.20;99.90;;;;;;5028291;28;20058;-78
2022/12/22 12:44:14;;;;;;;21.73;9.95;;;4.20;99.90;;;;;;5042278;28;20053;-75
2022/12/22 12:47:08;;;;;;;18.95;8.07;;;4.10;99.90;;;;;;5035778;28;20049;-76
2022/12/22 12:50:10;;;;;;;20.40;7.82;;;4.10;99.90;;;;;;5030348;28;20464;-75
2022/12/22 12:53:08;;;;;;;21.77;10.38;;;4.10;99.90;;;;;;5029878;28;20056;-79
2022/12/22 12:56:00;;;;;;;25.13;10.85;;;4.10;99.90;;;;;;5012870;28;20114;-78
2022/12/22 12:58:52;;;;;;;24.20;10.10;;;4.10;99.90;;;;;;5030335;28;20056;-81
2022/12/22 13:01:58;;;;;;;28.30;11.82;;;4.10;99.90;;;;;;5027809;28;20516;-78
2022/12/22 13:05:01;;;;;;;19.45;10.25;;;4.10;99.90;;;;;;5024190;28;20067;-79
2022/12/22 13:08:29;;;;;;;20.88;10.82;;;4.10;99.90;;;;;;5027729;28;20041;-78
2022/12/22 13:11:36;;;;;;;33.03;11.48;;;4.10;99.90;;;;;;5029950;28;20045;-79
2022/12/22 13:14:04;;;;;;;24.83;9.90;;;4.10;99.90;;;;;;5021692;28;20137;-77
2022/12/22 13:16:36;;;;;;;22.77;10.85;;;4.10;99.90;;;;;;5028788;28;20041;-80
2022/12/22 13:19:12;;;;;;;25.40;9.60;;;4.10;99.90;;;;;;5025901;28;20049;-79
2022/12/22 13:21:44;;;;;;;29.40;12.35;;;4.10;99.90;;;;;;5023148;28;20049;-80
2022/12/22 13:24:25;;;;;;;19.58;9.57;;;4.10;99.90;;;;;;5023273;28;20053;-77
2022/12/22 13:26:56;;;;;;;14.40;6.30;;;4.10;99.90;;;;;;5023755;28;20051;-79
2022/12/22 13:29:29;;;;;;;13.00;6.47;;;4.10;99.90;;;;;;5023788;28;20050;-79
2022/12/22 13:32:02;;;;;;;15.18;6.13;;;4.10;99.90;;;;;;5019325;28;20524;-79
2022/12/22 13:34:45;;;;;;;12.48;7.13;;;4.10;99.90;;;;;;5023067;28;20099;-81
2022/12/22 13:37:20;;;;;;;12.02;5.82;;;4.00;99.90;;;;;;5023072;28;20050;-81
2022/12/22 13:40:17;;;;;;;13.50;7.05;;;4.00;99.90;;;;;;5026338;28;20052;-80
2022/12/22 13:42:50;;;;;;;11.63;6.47;;;4.00;99.90;;;;;;5022316;28;20057;-82
2022/12/22 13:45:28;;;;;;;13.75;4.90;;;4.00;99.90;;;;;;5028712;28;20057;-82
2022/12/22 13:47:56;;;;;;;18.58;6.05;;;4.00;99.90;;;;;;5026501;28;20103;-81
2022/12/22 13:50:29;;;;;;;10.30;4.80;;;3.90;99.90;;;;;;5027782;28;20041;-80
2022/12/22 13:52:58;;;;;;;11.52;5.10;;;3.90;99.90;;;;;;5024937;28;20103;-84
2022/12/22 13:55:30;;;;;;;11.93;5.00;;;3.90;99.90;;;;;;5027964;28;20041;-80
2022/12/22 13:58:08;;;;;;;16.23;5.32;;;3.90;99.90;;;;;;5025423;28;20056;-76
2022/12/22 14:00:36;;;;;;;12.57;5.18;;;3.90;99.90;;;;;;5035140;28;20103;-79
2022/12/22 14:03:05;;;;;;;10.23;5.13;;;3.90;99.90;;;;;;5027365;28;20052;-78
2022/12/22 14:05:33;;;;;;;10.85;4.80;;;3.90;99.90;;;;;;5027426;28;20072;-79
2022/12/22 14:08:03;;;;;;;11.88;5.35;;;3.90;99.90;;;;;;5027442;28;20045;-79
2022/12/22 14:10:35;;;;;;;18.63;5.93;;;3.90;99.90;;;;;;5025324;28;20677;-76
2022/12/22 14:13:11;;;;;;;13.23;5.25;;;3.90;99.90;;;;;;5019122;28;20041;-80
2022/12/22 14:15:38;;;;;;;13.30;4.93;;;3.90;99.90;;;;;;5029380;28;20052;-78
2022/12/22 14:18:06;;;;;;;14.52;5.05;;;3.90;99.90;;;;;;5029016;28;20399;-79
2022/12/22 14:20:38;;;;;;;10.40;4.68;;;4.00;99.90;;;;;;5018165;28;20108;-80
2022/12/22 14:23:12;;;;;;;15.80;5.18;;;4.00;99.90;;;;;;5020356;28;20212;-81
2022/12/22 14:25:42;;;;;;;13.90;5.20;;;4.00;99.90;;;;;;5029448;28;20099;-82
2022/12/22 14:28:20;;;;;;;12.88;4.57;;;3.90;99.90;;;;;;5030856;28;20068;-78
2022/12/22 14:30:50;;;;;;;15.15;4.93;;;4.00;99.90;;;;;;5023415;28;20476;-80
2022/12/22 14:33:29;;;;;;;14.48;4.97;;;3.90;99.90;;;;;;5027190;28;20111;-80
2022/12/22 14:36:23;;;;;;;14.48;4.65;;;3.90;99.90;;;;;;5028501;28;20053;-78
2022/12/22 14:38:53;;;;;;;12.23;4.85;;;3.90;99.90;;;;;;5012067;28;20045;-81
2022/12/22 14:41:45;;;;;;;11.73;4.38;;;3.90;99.90;;;;;;5027352;28;20057;-81
2022/12/22 14:44:19;;;;;;;16.63;4.85;;;3.90;99.90;;;;;;5036992;28;20433;-78
2022/12/22 14:47:05;;;;;;;17.27;4.78;;;4.00;99.90;;;;;;5024875;28;20053;-80
2022/12/22 14:49:45;;;;;;;11.18;4.43;;;3.90;99.90;;;;;;5034425;28;20108;-82
2022/12/22 14:52:22;;;;;;;14.95;6.18;;;4.00;99.90;;;;;;5029030;28;20049;-81
2022/12/22 14:54:55;;;;;;;16.35;5.25;;;4.00;99.90;;;;;;5031719;28;20580;-84
2022/12/22 14:57:31;;;;;;;15.88;5.65;;;4.00;99.90;;;;;;5028129;28;20073;-82
2022/12/22 15:00:04;;;;;;;9.10;5.38;;;4.10;99.90;;;;;;5040295;28;20041;-79
2022/12/22 15:02:36;;;;;;;11.73;5.40;;;4.10;99.90;;;;;;5040470;28;20421;-81
2022/12/22 15:05:25;;;;;;;9.90;4.82;;;4.10;99.90;;;;;;5028430;28;20049;-81
2022/12/22 15:07:57;;;;;;;10.60;4.60;;;4.10;99.90;;;;;;5022352;28;20912;-84
2022/12/22 15:10:29;;;;;;;12.85;5.03;;;4.10;99.90;;;;;;5025296;28;20152;-87
2022/12/22 15:13:00;;;;;;;11.35;5.40;;;4.10;99.90;;;;;;5026750;28;20053;-78
2022/12/22 15:15:34;;;;;;;10.88;3.67;;;4.10;99.90;;;;;;5027061;28;20053;-82
2022/12/22 15:18:03;;;;;;;10.82;4.90;;;4.00;99.90;;;;;;5023806;28;20114;-81
2022/12/22 15:20:30;;;;;;;9.52;3.65;;;4.00;99.90;;;;;;5026377;28;20591;-79
2022/12/22 15:23:01;;;;;;;8.07;2.90;;;4.00;99.90;;;;;;5028882;28;20053;-79
2022/12/22 15:25:29;;;;;;;8.13;3.10;;;3.90;99.90;;;;;;5028988;28;20507;-80
2022/12/22 15:27:56;;;;;;;8.43;3.97;;;3.90;99.90;;;;;;5024279;28;20057;-78
2022/12/22 15:30:24;;;;;;;7.65;4.22;;;3.80;99.90;;;;;;5008838;28;20129;-79
2022/12/22 15:32:54;;;;;;;4.25;2.67;;;3.80;99.90;;;;;;5010427;28;20514;-80
2022/12/22 15:35:29;;;;;;;8.80;4.13;;;3.80;99.90;;;;;;5022771;28;20061;-79
2022/12/22 15:37:56;;;;;;;5.25;2.20;;;3.90;99.90;;;;;;5033694;28;20052;-79
2022/12/22 15:40:26;;;;;;;8.65;3.95;;;3.90;99.90;;;;;;5026288;28;20056;-78
2022/12/22 15:42:53;;;;;;;7.85;3.50;;;3.90;99.90;;;;;;5011750;28;20085;-79
2022/12/22 15:45:22;;;;;;;4.68;2.00;;;3.90;99.90;;;;;;5016938;28;20457;-79
2022/12/22 15:47:55;;;;;;;5.85;2.90;;;3.90;99.90;;;;;;5028511;28;20061;-79
2022/12/22 15:50:26;;;;;;;6.00;3.10;;;3.90;99.90;;;;;;5028739;28;20049;-80
2022/12/22 15:52:56;;;;;;;6.63;2.90;;;3.90;99.90;;;;;;5023407;28;20056;-78
2022/12/22 15:55:25;;;;;;;4.32;3.42;;;3.90;99.90;;;;;;5010268;28;20126;-80
2022/12/22 15:57:57;;;;;;;7.10;3.75;;;3.80;99.90;;;;;;5028082;28;20041;-77
2022/12/22 16:00:25;;;;;;;3.50;2.60;;;3.80;99.90;;;;;;5029004;28;20129;-77
2022/12/22 16:02:54;;;;;;;4.05;2.10;;;3.80;99.90;;;;;;5025334;28;20050;-76
2022/12/22 16:05:22;;;;;;;2.92;2.30;;;3.80;99.90;;;;;;5021946;28;20551;-76
2022/12/22 16:07:50;;;;;;;8.10;2.45;;;3.80;99.90;;;;;;5020744;28;20042;-77
2022/12/22 16:10:23;;;;;;;7.15;2.22;;;3.80;99.90;;;;;;5019441;28;20049;-77
2022/12/22 16:12:59;;;;;;;2.13;1.67;;;3.80;99.90;;;;;;5037499;28;20057;-79
2022/12/22 16:15:27;;;;;;;1.75;1.42;;;3.80;99.90;;;;;;5028842;28;20056;-81
2022/12/22 16:17:57;;;;;;;2.83;1.88;;;3.90;99.90;;;;;;5028090;28;20136;-80
2022/12/22 16:20:26;;;;;;;3.63;2.17;;;3.80;99.90;;;;;;5027166;28;20041;-80
2022/12/22 16:22:53;;;;;;;5.18;2.40;;;3.90;99.90;;;;;;5027527;28;20147;-81
2022/12/22 16:25:29;;;;;;;4.60;2.90;;;3.90;99.90;;;;;;5029371;28;20050;-79
2022/12/22 16:27:57;;;;;;;7.53;3.15;;;3.90;99.90;;;;;;5026146;28;20053;-77
2022/12/22 16:30:29;;;;;;;5.65;3.65;;;3.90;99.90;;;;;;5025182;28;20049;-80
2022/12/22 16:32:58;;;;;;;6.10;2.95;;;3.90;99.90;;;;;;5025866;28;20156;-78
2022/12/22 16:35:28;;;;;;;3.42;2.15;;;3.90;99.90;;;;;;5026002;28;20049;-77
2022/12/22 16:37:58;;;;;;;4.38;3.08;;;3.90;99.90;;;;;;5044648;28;20053;-77
2022/12/22 16:40:27;;;;;;;5.13;2.70;;;3.90;99.90;;;;;;5026360;28;20536;-78
2022/12/22 16:43:00;;;;;;;4.13;3.40;;;3.80;99.90;;;;;;5026475;28;20111;-79
2022/12/22 16:45:31;;;;;;;4.80;3.10;;;3.80;99.90;;;;;;5026551;28;20056;-80
2022/12/22 16:48:05;;;;;;;5.82;3.45;;;3.80;99.90;;;;;;5026667;28;20413;-79
2022/12/22 16:50:33;;;;;;;7.93;3.80;;;3.80;99.90;;;;;;5027461;28;20046;-77